sensor_id;sensor_type;location;lat;lon;timestamp;P1;durP1;ratioP1;P2;durP2;ratioP2
5195;SDS011;2617;51.006;12.436;2024-02-26T00:02:30;28.35;;;15.93;;
5195;SDS011;2617;51.006;12.436;2024-02-26T00:07:33;25.10;;;14.93;;
5195;SDS011;2617;51.006;12.436;2024-02-26T00:12:36;25.88;;;15.43;;
5195;SDS011;2617;51.006;12.436;2024-02-26T00:17:38;23.25;;;14.77;;
5195;SDS011;2617;51.006;12.436;2024-02-26T00:22:41;22.50;;;13.80;;
5195;SDS011;2617;51.006;12.436;2024-02-26T00:27:43;30.67;;;15.07;;
5195;SDS011;2617;51.006;12.436;2024-02-26T00:32:46;22.10;;;12.10;;
5195;SDS011;2617;51.006;12.436;2024-02-26T00:37:48;23.50;;;15.37;;
5195;SDS011;2617;51.006;12.436;2024-02-26T00:42:51;21.10;;;12.77;;
5195;SDS011;2617;51.006;12.436;2024-02-26T00:47:54;26.70;;;15.00;;
5195;SDS011;2617;51.006;12.436;2024-02-26T00:52:56;23.47;;;14.03;;
5195;SDS011;2617;51.006;12.436;2024-02-26T00:57:59;27.63;;;13.80;;
5195;SDS011;2617;51.006;12.436;2024-02-26T01:03:02;22.50;;;12.55;;
5195;SDS011;2617;51.006;12.436;2024-02-26T01:08:05;24.97;;;13.17;;
5195;SDS011;2617;51.006;12.436;2024-02-26T01:13:07;24.50;;;13.03;;
5195;SDS011;2617;51.006;12.436;2024-02-26T01:18:10;23.15;;;13.27;;
5195;SDS011;2617;51.006;12.436;2024-02-26T01:23:13;21.47;;;13.20;;
5195;SDS011;2617;51.006;12.436;2024-02-26T01:28:15;22.10;;;14.17;;
5195;SDS011;2617;51.006;12.436;2024-02-26T01:33:18;19.50;;;12.30;;
5195;SDS011;2617;51.006;12.436;2024-02-26T01:38:20;22.57;;;13.50;;
5195;SDS011;2617;51.006;12.436;2024-02-26T01:43:24;18.48;;;11.75;;
5195;SDS011;2617;51.006;12.436;2024-02-26T01:48:27;22.07;;;12.70;;
5195;SDS011;2617;51.006;12.436;2024-02-26T01:53:31;22.00;;;12.60;;
5195;SDS011;2617;51.006;12.436;2024-02-26T01:58:34;20.50;;;12.83;;
5195;SDS011;2617;51.006;12.436;2024-02-26T02:03:36;22.37;;;12.93;;
5195;SDS011;2617;51.006;12.436;2024-02-26T02:08:39;19.67;;;11.43;;
5195;SDS011;2617;51.006;12.436;2024-02-26T02:13:41;20.40;;;11.90;;
5195;SDS011;2617;51.006;12.436;2024-02-26T02:18:44;22.13;;;12.93;;
5195;SDS011;2617;51.006;12.436;2024-02-26T02:23:46;18.47;;;12.07;;
5195;SDS011;2617;51.006;12.436;2024-02-26T02:28:49;20.00;;;12.00;;
5195;SDS011;2617;51.006;12.436;2024-02-26T02:33:51;19.60;;;11.37;;
5195;SDS011;2617;51.006;12.436;2024-02-26T02:38:55;19.90;;;12.30;;
5195;SDS011;2617;51.006;12.436;2024-02-26T02:43:57;23.23;;;12.60;;
5195;SDS011;2617;51.006;12.436;2024-02-26T02:49:00;22.03;;;12.90;;
5195;SDS011;2617;51.006;12.436;2024-02-26T02:54:02;21.43;;;12.30;;
5195;SDS011;2617;51.006;12.436;2024-02-26T02:59:05;20.80;;;11.90;;
5195;SDS011;2617;51.006;12.436;2024-02-26T03:04:08;24.00;;;11.30;;
5195;SDS011;2617;51.006;12.436;2024-02-26T03:09:11;20.23;;;12.27;;
5195;SDS011;2617;51.006;12.436;2024-02-26T03:14:14;23.90;;;12.50;;
5195;SDS011;2617;51.006;12.436;2024-02-26T03:19:16;16.37;;;10.20;;
5195;SDS011;2617;51.006;12.436;2024-02-26T03:24:19;18.15;;;11.45;;
5195;SDS011;2617;51.006;12.436;2024-02-26T03:29:21;16.97;;;11.20;;
5195;SDS011;2617;51.006;12.436;2024-02-26T03:34:25;17.48;;;11.14;;
5195;SDS011;2617;51.006;12.436;2024-02-26T03:39:28;16.60;;;10.00;;
5195;SDS011;2617;51.006;12.436;2024-02-26T03:44:30;18.65;;;11.18;;
5195;SDS011;2617;51.006;12.436;2024-02-26T03:49:33;18.40;;;10.83;;
5195;SDS011;2617;51.006;12.436;2024-02-26T03:54:36;17.67;;;10.87;;
5195;SDS011;2617;51.006;12.436;2024-02-26T03:59:38;18.83;;;11.00;;
5195;SDS011;2617;51.006;12.436;2024-02-26T04:04:41;19.30;;;11.27;;
5195;SDS011;2617;51.006;12.436;2024-02-26T04:09:44;17.30;;;10.57;;
5195;SDS011;2617;51.006;12.436;2024-02-26T04:14:46;20.90;;;11.17;;
5195;SDS011;2617;51.006;12.436;2024-02-26T04:19:48;22.77;;;10.70;;
5195;SDS011;2617;51.006;12.436;2024-02-26T04:24:51;20.80;;;10.87;;
5195;SDS011;2617;51.006;12.436;2024-02-26T04:29:54;16.90;;;10.97;;
5195;SDS011;2617;51.006;12.436;2024-02-26T04:34:57;21.37;;;11.37;;
5195;SDS011;2617;51.006;12.436;2024-02-26T04:39:59;22.37;;;10.80;;
5195;SDS011;2617;51.006;12.436;2024-02-26T04:45:02;22.30;;;12.50;;
5195;SDS011;2617;51.006;12.436;2024-02-26T04:50:05;17.73;;;10.77;;
5195;SDS011;2617;51.006;12.436;2024-02-26T04:55:08;20.20;;;11.23;;
5195;SDS011;2617;51.006;12.436;2024-02-26T05:00:11;23.98;;;13.38;;
5195;SDS011;2617;51.006;12.436;2024-02-26T05:05:15;21.42;;;12.93;;
5195;SDS011;2617;51.006;12.436;2024-02-26T05:10:17;23.73;;;12.65;;
5195;SDS011;2617;51.006;12.436;2024-02-26T05:15:20;23.40;;;12.87;;
5195;SDS011;2617;51.006;12.436;2024-02-26T05:20:22;23.40;;;12.10;;
5195;SDS011;2617;51.006;12.436;2024-02-26T05:25:25;21.53;;;11.70;;
5195;SDS011;2617;51.006;12.436;2024-02-26T05:30:28;18.15;;;12.23;;
5195;SDS011;2617;51.006;12.436;2024-02-26T05:35:31;22.30;;;12.07;;
5195;SDS011;2617;51.006;12.436;2024-02-26T05:40:33;19.45;;;11.05;;
5195;SDS011;2617;51.006;12.436;2024-02-26T05:45:37;17.80;;;11.63;;
5195;SDS011;2617;51.006;12.436;2024-02-26T05:50:39;18.95;;;11.82;;
5195;SDS011;2617;51.006;12.436;2024-02-26T05:55:42;18.67;;;11.48;;
5195;SDS011;2617;51.006;12.436;2024-02-26T06:00:44;31.90;;;13.30;;
5195;SDS011;2617;51.006;12.436;2024-02-26T06:05:47;21.10;;;11.90;;
5195;SDS011;2617;51.006;12.436;2024-02-26T06:10:49;19.80;;;11.60;;
5195;SDS011;2617;51.006;12.436;2024-02-26T06:15:52;23.17;;;11.67;;
5195;SDS011;2617;51.006;12.436;2024-02-26T06:20:54;22.77;;;13.10;;
5195;SDS011;2617;51.006;12.436;2024-02-26T06:25:56;27.57;;;13.90;;
5195;SDS011;2617;51.006;12.436;2024-02-26T06:30:59;28.80;;;14.33;;
5195;SDS011;2617;51.006;12.436;2024-02-26T06:36:02;25.00;;;13.37;;
5195;SDS011;2617;51.006;12.436;2024-02-26T06:41:04;23.10;;;13.43;;
5195;SDS011;2617;51.006;12.436;2024-02-26T06:46:07;24.63;;;13.47;;
5195;SDS011;2617;51.006;12.436;2024-02-26T06:51:09;27.10;;;14.30;;
5195;SDS011;2617;51.006;12.436;2024-02-26T06:56:12;27.65;;;14.63;;
5195;SDS011;2617;51.006;12.436;2024-02-26T07:01:14;26.95;;;14.93;;
5195;SDS011;2617;51.006;12.436;2024-02-26T07:06:17;31.65;;;15.05;;
5195;SDS011;2617;51.006;12.436;2024-02-26T07:11:19;32.77;;;17.97;;
5195;SDS011;2617;51.006;12.436;2024-02-26T07:16:22;41.20;;;18.80;;
5195;SDS011;2617;51.006;12.436;2024-02-26T07:21:24;28.20;;;15.90;;
5195;SDS011;2617;51.006;12.436;2024-02-26T07:26:28;25.30;;;15.10;;
5195;SDS011;2617;51.006;12.436;2024-02-26T07:31:31;32.50;;;15.17;;
5195;SDS011;2617;51.006;12.436;2024-02-26T07:36:33;28.97;;;16.50;;
5195;SDS011;2617;51.006;12.436;2024-02-26T07:41:36;42.17;;;17.55;;
5195;SDS011;2617;51.006;12.436;2024-02-26T07:46:39;45.33;;;17.70;;
5195;SDS011;2617;51.006;12.436;2024-02-26T07:51:42;33.55;;;16.10;;
5195;SDS011;2617;51.006;12.436;2024-02-26T07:56:45;28.95;;;15.70;;
5195;SDS011;2617;51.006;12.436;2024-02-26T08:01:49;29.25;;;16.17;;
5195;SDS011;2617;51.006;12.436;2024-02-26T08:06:51;24.87;;;15.37;;
5195;SDS011;2617;51.006;12.436;2024-02-26T08:11:54;23.50;;;14.47;;
5195;SDS011;2617;51.006;12.436;2024-02-26T08:16:56;21.80;;;13.80;;
5195;SDS011;2617;51.006;12.436;2024-02-26T08:21:59;22.80;;;12.40;;
5195;SDS011;2617;51.006;12.436;2024-02-26T08:27:02;17.37;;;12.15;;
5195;SDS011;2617;51.006;12.436;2024-02-26T08:32:04;18.20;;;11.50;;
5195;SDS011;2617;51.006;12.436;2024-02-26T08:37:07;14.70;;;10.17;;
5195;SDS011;2617;51.006;12.436;2024-02-26T08:42:10;14.13;;;10.10;;
5195;SDS011;2617;51.006;12.436;2024-02-26T08:47:12;19.13;;;8.87;;
5195;SDS011;2617;51.006;12.436;2024-02-26T08:52:15;13.40;;;9.10;;
5195;SDS011;2617;51.006;12.436;2024-02-26T08:57:18;15.53;;;10.07;;
5195;SDS011;2617;51.006;12.436;2024-02-26T09:02:21;19.73;;;10.48;;
5195;SDS011;2617;51.006;12.436;2024-02-26T09:07:28;18.47;;;10.10;;
5195;SDS011;2617;51.006;12.436;2024-02-26T09:12:36;18.30;;;10.10;;
5195;SDS011;2617;51.006;12.436;2024-02-26T09:17:38;11.93;;;8.90;;
5195;SDS011;2617;51.006;12.436;2024-02-26T09:22:41;15.66;;;9.62;;
5195;SDS011;2617;51.006;12.436;2024-02-26T09:27:43;15.83;;;9.97;;
5195;SDS011;2617;51.006;12.436;2024-02-26T09:32:46;14.82;;;9.55;;
5195;SDS011;2617;51.006;12.436;2024-02-26T09:37:49;12.75;;;7.47;;
5195;SDS011;2617;51.006;12.436;2024-02-26T09:42:59;9.45;;;6.40;;
5195;SDS011;2617;51.006;12.436;2024-02-26T09:48:02;10.60;;;5.70;;
5195;SDS011;2617;51.006;12.436;2024-02-26T09:53:06;8.90;;;5.55;;
5195;SDS011;2617;51.006;12.436;2024-02-26T09:58:09;9.37;;;5.60;;
5195;SDS011;2617;51.006;12.436;2024-02-26T10:03:13;8.13;;;5.63;;
5195;SDS011;2617;51.006;12.436;2024-02-26T10:08:15;26.27;;;7.60;;
5195;SDS011;2617;51.006;12.436;2024-02-26T10:13:17;9.37;;;5.83;;
5195;SDS011;2617;51.006;12.436;2024-02-26T10:18:20;7.50;;;5.60;;
5195;SDS011;2617;51.006;12.436;2024-02-26T10:23:23;11.07;;;6.13;;
5195;SDS011;2617;51.006;12.436;2024-02-26T10:28:25;7.43;;;5.63;;
5195;SDS011;2617;51.006;12.436;2024-02-26T10:33:28;7.67;;;5.63;;
5195;SDS011;2617;51.006;12.436;2024-02-26T10:38:30;16.53;;;6.07;;
5195;SDS011;2617;51.006;12.436;2024-02-26T10:43:34;8.90;;;5.83;;
5195;SDS011;2617;51.006;12.436;2024-02-26T10:48:37;8.20;;;5.80;;
5195;SDS011;2617;51.006;12.436;2024-02-26T10:53:39;7.17;;;6.20;;
5195;SDS011;2617;51.006;12.436;2024-02-26T10:58:42;8.50;;;6.10;;
5195;SDS011;2617;51.006;12.436;2024-02-26T11:03:45;7.85;;;6.12;;
5195;SDS011;2617;51.006;12.436;2024-02-26T11:08:48;9.13;;;6.30;;
5195;SDS011;2617;51.006;12.436;2024-02-26T11:13:51;6.40;;;5.70;;
5195;SDS011;2617;51.006;12.436;2024-02-26T11:18:54;9.97;;;6.83;;
5195;SDS011;2617;51.006;12.436;2024-02-26T11:23:56;8.20;;;6.30;;
5195;SDS011;2617;51.006;12.436;2024-02-26T11:28:59;8.10;;;6.10;;
5195;SDS011;2617;51.006;12.436;2024-02-26T11:34:11;9.47;;;6.70;;
5195;SDS011;2617;51.006;12.436;2024-02-26T11:39:14;8.20;;;5.50;;
5195;SDS011;2617;51.006;12.436;2024-02-26T11:44:28;8.40;;;6.07;;
5195;SDS011;2617;51.006;12.436;2024-02-26T11:49:31;9.00;;;5.77;;
5195;SDS011;2617;51.006;12.436;2024-02-26T11:54:38;11.20;;;6.87;;
5195;SDS011;2617;51.006;12.436;2024-02-26T11:59:45;7.03;;;5.67;;
5195;SDS011;2617;51.006;12.436;2024-02-26T12:04:48;6.33;;;4.80;;
5195;SDS011;2617;51.006;12.436;2024-02-26T12:09:51;8.17;;;5.37;;
5195;SDS011;2617;51.006;12.436;2024-02-26T12:14:55;6.97;;;4.60;;
5195;SDS011;2617;51.006;12.436;2024-02-26T12:20:07;9.70;;;5.57;;
5195;SDS011;2617;51.006;12.436;2024-02-26T12:24:59;7.60;;;5.33;;
5195;SDS011;2617;51.006;12.436;2024-02-26T12:30:03;10.85;;;5.25;;
5195;SDS011;2617;51.006;12.436;2024-02-26T12:35:06;9.80;;;6.13;;
5195;SDS011;2617;51.006;12.436;2024-02-26T12:40:10;5.63;;;5.00;;
5195;SDS011;2617;51.006;12.436;2024-02-26T12:45:13;13.60;;;6.20;;
5195;SDS011;2617;51.006;12.436;2024-02-26T12:50:15;9.73;;;5.53;;
5195;SDS011;2617;51.006;12.436;2024-02-26T12:55:18;7.17;;;5.40;;
5195;SDS011;2617;51.006;12.436;2024-02-26T13:00:23;9.70;;;5.77;;
5195;SDS011;2617;51.006;12.436;2024-02-26T13:05:24;6.75;;;5.32;;
5195;SDS011;2617;51.006;12.436;2024-02-26T13:10:27;8.63;;;5.23;;
5195;SDS011;2617;51.006;12.436;2024-02-26T13:15:30;8.83;;;5.17;;
5195;SDS011;2617;51.006;12.436;2024-02-26T13:20:33;7.40;;;5.10;;
5195;SDS011;2617;51.006;12.436;2024-02-26T13:25:36;8.10;;;5.70;;
5195;SDS011;2617;51.006;12.436;2024-02-26T13:30:39;11.60;;;5.90;;
5195;SDS011;2617;51.006;12.436;2024-02-26T13:35:42;6.13;;;5.50;;
5195;SDS011;2617;51.006;12.436;2024-02-26T13:40:44;10.40;;;5.63;;
5195;SDS011;2617;51.006;12.436;2024-02-26T13:45:47;7.53;;;4.93;;
5195;SDS011;2617;51.006;12.436;2024-02-26T13:50:50;16.00;;;6.73;;
5195;SDS011;2617;51.006;12.436;2024-02-26T13:55:52;9.00;;;6.30;;
5195;SDS011;2617;51.006;12.436;2024-02-26T14:00:55;7.60;;;5.57;;
5195;SDS011;2617;51.006;12.436;2024-02-26T14:05:57;7.85;;;4.90;;
5195;SDS011;2617;51.006;12.436;2024-02-26T14:11:00;7.72;;;5.30;;
5195;SDS011;2617;51.006;12.436;2024-02-26T14:16:03;9.23;;;5.80;;
5195;SDS011;2617;51.006;12.436;2024-02-26T14:21:06;9.70;;;6.10;;
5195;SDS011;2617;51.006;12.436;2024-02-26T14:26:08;6.83;;;5.67;;
5195;SDS011;2617;51.006;12.436;2024-02-26T14:31:11;7.17;;;5.67;;
5195;SDS011;2617;51.006;12.436;2024-02-26T14:36:13;11.20;;;6.50;;
5195;SDS011;2617;51.006;12.436;2024-02-26T14:41:16;8.77;;;6.77;;
5195;SDS011;2617;51.006;12.436;2024-02-26T14:46:19;10.50;;;6.55;;
5195;SDS011;2617;51.006;12.436;2024-02-26T14:51:22;13.07;;;6.77;;
5195;SDS011;2617;51.006;12.436;2024-02-26T14:56:24;10.53;;;6.17;;
5195;SDS011;2617;51.006;12.436;2024-02-26T15:01:27;9.33;;;6.60;;
5195;SDS011;2617;51.006;12.436;2024-02-26T15:06:29;13.37;;;7.30;;
5195;SDS011;2617;51.006;12.436;2024-02-26T15:11:32;8.77;;;5.33;;
5195;SDS011;2617;51.006;12.436;2024-02-26T15:16:34;7.70;;;5.37;;
5195;SDS011;2617;51.006;12.436;2024-02-26T15:21:44;7.37;;;5.67;;
5195;SDS011;2617;51.006;12.436;2024-02-26T15:26:46;9.15;;;6.12;;
5195;SDS011;2617;51.006;12.436;2024-02-26T15:31:48;6.97;;;5.53;;
5195;SDS011;2617;51.006;12.436;2024-02-26T15:36:51;9.65;;;6.22;;
5195;SDS011;2617;51.006;12.436;2024-02-26T15:41:53;9.73;;;6.20;;
5195;SDS011;2617;51.006;12.436;2024-02-26T15:46:56;9.30;;;5.53;;
5195;SDS011;2617;51.006;12.436;2024-02-26T15:51:59;11.07;;;6.10;;
5195;SDS011;2617;51.006;12.436;2024-02-26T15:57:02;7.00;;;5.70;;
5195;SDS011;2617;51.006;12.436;2024-02-26T16:02:05;7.87;;;6.03;;
5195;SDS011;2617;51.006;12.436;2024-02-26T16:07:08;11.40;;;5.67;;
5195;SDS011;2617;51.006;12.436;2024-02-26T16:12:15;12.13;;;5.97;;
5195;SDS011;2617;51.006;12.436;2024-02-26T16:17:17;9.27;;;5.67;;
5195;SDS011;2617;51.006;12.436;2024-02-26T16:22:36;8.33;;;5.70;;
5195;SDS011;2617;51.006;12.436;2024-02-26T16:27:38;9.47;;;6.00;;
5195;SDS011;2617;51.006;12.436;2024-02-26T16:32:42;9.23;;;6.53;;
5195;SDS011;2617;51.006;12.436;2024-02-26T16:37:45;8.40;;;6.50;;
5195;SDS011;2617;51.006;12.436;2024-02-26T16:42:47;10.80;;;6.68;;
5195;SDS011;2617;51.006;12.436;2024-02-26T16:47:50;9.80;;;6.82;;
5195;SDS011;2617;51.006;12.436;2024-02-26T16:52:53;9.63;;;6.22;;
5195;SDS011;2617;51.006;12.436;2024-02-26T16:57:56;10.77;;;6.70;;
5195;SDS011;2617;51.006;12.436;2024-02-26T17:02:58;10.05;;;6.87;;
5195;SDS011;2617;51.006;12.436;2024-02-26T17:08:01;9.93;;;6.40;;
5195;SDS011;2617;51.006;12.436;2024-02-26T17:13:03;14.03;;;7.50;;
5195;SDS011;2617;51.006;12.436;2024-02-26T17:18:06;9.53;;;6.70;;
5195;SDS011;2617;51.006;12.436;2024-02-26T17:23:08;12.48;;;7.57;;
5195;SDS011;2617;51.006;12.436;2024-02-26T17:28:11;12.73;;;7.23;;
5195;SDS011;2617;51.006;12.436;2024-02-26T17:33:14;12.82;;;8.10;;
5195;SDS011;2617;51.006;12.436;2024-02-26T17:38:16;10.57;;;7.70;;
5195;SDS011;2617;51.006;12.436;2024-02-26T17:43:18;10.38;;;7.28;;
5195;SDS011;2617;51.006;12.436;2024-02-26T17:48:21;9.97;;;8.20;;
5195;SDS011;2617;51.006;12.436;2024-02-26T17:53:23;10.33;;;7.87;;
5195;SDS011;2617;51.006;12.436;2024-02-26T17:58:26;13.90;;;8.95;;
5195;SDS011;2617;51.006;12.436;2024-02-26T18:03:29;17.43;;;7.40;;
5195;SDS011;2617;51.006;12.436;2024-02-26T18:08:31;12.33;;;7.93;;
5195;SDS011;2617;51.006;12.436;2024-02-26T18:13:34;14.27;;;9.10;;
5195;SDS011;2617;51.006;12.436;2024-02-26T18:18:36;11.73;;;8.40;;
5195;SDS011;2617;51.006;12.436;2024-02-26T18:23:40;12.20;;;8.13;;
5195;SDS011;2617;51.006;12.436;2024-02-26T18:28:42;16.90;;;8.90;;
5195;SDS011;2617;51.006;12.436;2024-02-26T18:33:45;14.50;;;8.60;;
5195;SDS011;2617;51.006;12.436;2024-02-26T18:38:47;12.97;;;8.17;;
5195;SDS011;2617;51.006;12.436;2024-02-26T18:43:50;15.52;;;9.72;;
5195;SDS011;2617;51.006;12.436;2024-02-26T18:48:52;16.07;;;9.43;;
5195;SDS011;2617;51.006;12.436;2024-02-26T18:53:54;15.10;;;8.10;;
5195;SDS011;2617;51.006;12.436;2024-02-26T18:58:57;15.57;;;8.53;;
5195;SDS011;2617;51.006;12.436;2024-02-26T19:04:00;9.77;;;8.23;;
5195;SDS011;2617;51.006;12.436;2024-02-26T19:09:02;13.40;;;9.03;;
5195;SDS011;2617;51.006;12.436;2024-02-26T19:14:04;14.67;;;9.37;;
5195;SDS011;2617;51.006;12.436;2024-02-26T19:19:07;11.80;;;8.67;;
5195;SDS011;2617;51.006;12.436;2024-02-26T19:24:09;16.37;;;9.63;;
5195;SDS011;2617;51.006;12.436;2024-02-26T19:29:12;26.37;;;14.98;;
5195;SDS011;2617;51.006;12.436;2024-02-26T19:34:15;14.93;;;10.30;;
5195;SDS011;2617;51.006;12.436;2024-02-26T19:39:18;22.20;;;11.50;;
5195;SDS011;2617;51.006;12.436;2024-02-26T19:44:20;18.12;;;10.02;;
5195;SDS011;2617;51.006;12.436;2024-02-26T19:49:22;15.85;;;10.50;;
5195;SDS011;2617;51.006;12.436;2024-02-26T19:54:25;15.45;;;9.70;;
5195;SDS011;2617;51.006;12.436;2024-02-26T19:59:27;19.03;;;11.20;;
5195;SDS011;2617;51.006;12.436;2024-02-26T20:04:30;16.23;;;10.73;;
5195;SDS011;2617;51.006;12.436;2024-02-26T20:09:34;16.73;;;10.70;;
5195;SDS011;2617;51.006;12.436;2024-02-26T20:14:37;16.05;;;10.25;;
5195;SDS011;2617;51.006;12.436;2024-02-26T20:19:39;17.87;;;11.70;;
5195;SDS011;2617;51.006;12.436;2024-02-26T20:24:43;15.40;;;8.98;;
5195;SDS011;2617;51.006;12.436;2024-02-26T20:29:47;18.23;;;11.40;;
5195;SDS011;2617;51.006;12.436;2024-02-26T20:34:49;18.10;;;11.80;;
5195;SDS011;2617;51.006;12.436;2024-02-26T20:39:52;20.43;;;10.20;;
5195;SDS011;2617;51.006;12.436;2024-02-26T20:44:54;15.43;;;10.43;;
5195;SDS011;2617;51.006;12.436;2024-02-26T20:49:57;23.62;;;13.15;;
5195;SDS011;2617;51.006;12.436;2024-02-26T20:54:59;14.35;;;10.35;;
5195;SDS011;2617;51.006;12.436;2024-02-26T21:00:02;17.17;;;11.10;;
5195;SDS011;2617;51.006;12.436;2024-02-26T21:05:05;15.97;;;11.20;;
5195;SDS011;2617;51.006;12.436;2024-02-26T21:10:08;15.17;;;10.50;;
5195;SDS011;2617;51.006;12.436;2024-02-26T21:15:11;17.07;;;9.77;;
5195;SDS011;2617;51.006;12.436;2024-02-26T21:20:14;24.27;;;11.53;;
5195;SDS011;2617;51.006;12.436;2024-02-26T21:25:18;20.15;;;11.60;;
5195;SDS011;2617;51.006;12.436;2024-02-26T21:30:21;16.20;;;10.90;;
5195;SDS011;2617;51.006;12.436;2024-02-26T21:35:23;15.97;;;10.87;;
5195;SDS011;2617;51.006;12.436;2024-02-26T21:40:26;16.70;;;10.40;;
5195;SDS011;2617;51.006;12.436;2024-02-26T21:45:28;18.20;;;10.77;;
5195;SDS011;2617;51.006;12.436;2024-02-26T21:50:31;14.53;;;9.73;;
5195;SDS011;2617;51.006;12.436;2024-02-26T21:55:33;16.57;;;11.03;;
5195;SDS011;2617;51.006;12.436;2024-02-26T22:00:36;15.93;;;10.00;;
5195;SDS011;2617;51.006;12.436;2024-02-26T22:05:39;19.10;;;9.67;;
5195;SDS011;2617;51.006;12.436;2024-02-26T22:10:41;16.00;;;9.80;;
5195;SDS011;2617;51.006;12.436;2024-02-26T22:15:44;15.13;;;9.70;;
5195;SDS011;2617;51.006;12.436;2024-02-26T22:20:46;15.60;;;9.63;;
5195;SDS011;2617;51.006;12.436;2024-02-26T22:25:49;13.60;;;9.80;;
5195;SDS011;2617;51.006;12.436;2024-02-26T22:30:51;20.50;;;10.13;;
5195;SDS011;2617;51.006;12.436;2024-02-26T22:35:54;16.55;;;9.18;;
5195;SDS011;2617;51.006;12.436;2024-02-26T22:40:57;15.37;;;10.50;;
5195;SDS011;2617;51.006;12.436;2024-02-26T22:46:00;14.87;;;10.32;;
5195;SDS011;2617;51.006;12.436;2024-02-26T22:51:03;16.53;;;10.70;;
5195;SDS011;2617;51.006;12.436;2024-02-26T22:56:05;15.57;;;11.07;;
5195;SDS011;2617;51.006;12.436;2024-02-26T23:01:08;19.00;;;11.97;;
5195;SDS011;2617;51.006;12.436;2024-02-26T23:06:11;14.98;;;10.80;;
5195;SDS011;2617;51.006;12.436;2024-02-26T23:11:13;17.80;;;11.90;;
5195;SDS011;2617;51.006;12.436;2024-02-26T23:16:16;18.37;;;12.57;;
5195;SDS011;2617;51.006;12.436;2024-02-26T23:21:20;19.28;;;12.64;;
5195;SDS011;2617;51.006;12.436;2024-02-26T23:26:22;21.20;;;11.77;;
5195;SDS011;2617;51.006;12.436;2024-02-26T23:31:25;21.85;;;12.52;;
5195;SDS011;2617;51.006;12.436;2024-02-26T23:36:29;19.52;;;13.05;;
5195;SDS011;2617;51.006;12.436;2024-02-26T23:41:31;22.07;;;14.10;;
5195;SDS011;2617;51.006;12.436;2024-02-26T23:46:34;20.83;;;13.93;;
5195;SDS011;2617;51.006;12.436;2024-02-26T23:51:37;25.67;;;16.00;;
5195;SDS011;2617;51.006;12.436;2024-02-26T23:56:40;26.40;;;14.97;;
